createdAt,value
2018-08-28T00:00:34.634Z,18.88
2018-08-28T00:03:03.690Z,18.88
2018-08-28T00:05:32.790Z,18.87
2018-08-28T00:08:02.027Z,18.88
2018-08-28T00:10:31.109Z,18.86
2018-08-28T00:13:00.169Z,18.86
2018-08-28T00:15:29.193Z,18.85
2018-08-28T00:17:58.212Z,18.84
2018-08-28T00:20:27.234Z,18.82
2018-08-28T00:22:56.366Z,18.82
2018-08-28T00:25:25.482Z,18.80
2018-08-28T00:27:54.502Z,18.78
2018-08-28T00:30:23.582Z,18.79
2018-08-28T00:32:52.650Z,18.77
2018-08-28T00:35:22.194Z,18.76
2018-08-28T00:43:04.780Z,18.68
2018-08-28T00:45:34.096Z,18.64
2018-08-28T00:48:03.291Z,18.62
2018-08-28T00:50:32.420Z,18.59
2018-08-28T00:53:01.591Z,18.56
2018-08-28T00:55:30.716Z,18.54
2018-08-28T00:57:59.831Z,18.53
2018-08-28T01:00:28.991Z,18.52
2018-08-28T01:02:58.100Z,18.51
2018-08-28T01:05:27.210Z,18.51
2018-08-28T01:07:56.308Z,18.51
2018-08-28T01:10:25.392Z,18.52
2018-08-28T01:12:54.532Z,18.52
2018-08-28T01:15:24.422Z,18.54
2018-08-28T01:17:53.584Z,18.53
2018-08-28T01:20:22.738Z,18.52
2018-08-28T01:38:32.072Z,18.23
2018-08-28T01:41:01.215Z,18.22
2018-08-28T01:43:32.212Z,18.21
2018-08-28T01:46:01.396Z,18.18
2018-08-28T01:48:30.578Z,18.15
2018-08-28T01:50:59.744Z,18.14
2018-08-28T01:53:28.933Z,18.10
2018-08-28T01:55:58.180Z,18.09
2018-08-28T01:58:27.345Z,18.07
2018-08-28T02:00:56.486Z,18.04
2018-08-28T02:03:25.563Z,18.04
2018-08-28T02:05:56.513Z,18.02
2018-08-28T02:08:25.700Z,17.94
2018-08-28T02:10:54.880Z,17.97
2018-08-28T02:13:24.050Z,17.94
2018-08-28T02:15:54.100Z,17.91
2018-08-28T02:18:23.365Z,17.92
2018-08-28T02:20:53.489Z,17.88
2018-08-28T02:23:23.356Z,17.90
2018-08-28T02:25:53.336Z,17.89
2018-08-28T02:28:23.482Z,17.88
2018-08-28T02:36:07.460Z,17.82
2018-08-28T02:38:36.889Z,17.82
2018-08-28T02:41:06.129Z,17.80
2018-08-28T02:43:35.285Z,17.78
2018-08-28T02:46:04.453Z,17.74
2018-08-28T02:48:35.385Z,17.71
2018-08-28T02:51:04.609Z,17.71
2018-08-28T02:53:36.333Z,17.72
2018-08-28T02:56:05.931Z,17.72
2018-08-28T02:58:35.057Z,17.71
2018-08-28T03:01:04.285Z,17.69
2018-08-28T03:03:33.558Z,17.66
2018-08-28T03:06:02.629Z,17.65
2018-08-28T03:08:33.991Z,17.64
2018-08-28T03:11:03.084Z,17.60
2018-08-28T03:13:32.350Z,17.59
2018-08-28T03:16:01.494Z,17.58
2018-08-28T03:18:30.693Z,17.59
2018-08-28T03:20:59.829Z,17.60
2018-08-28T03:23:28.994Z,17.59
2018-08-28T03:25:58.087Z,17.59
2018-08-28T03:28:27.468Z,17.59
2018-08-28T03:30:56.597Z,17.59
2018-08-28T03:33:25.875Z,17.60
2018-08-28T03:35:55.072Z,17.60
2018-08-28T03:38:24.707Z,17.57
2018-08-28T03:40:54.555Z,17.54
2018-08-28T03:43:24.937Z,17.51
2018-08-28T03:45:55.388Z,17.48
2018-08-28T03:48:24.795Z,17.44
2018-08-28T03:50:54.495Z,17.40
2018-08-28T03:53:24.133Z,17.35
2018-08-28T03:55:54.245Z,17.31
2018-08-28T03:58:24.314Z,17.31
2018-08-28T04:05:49.726Z,17.24
2018-08-28T04:08:18.883Z,17.24
2018-08-28T04:10:49.117Z,17.23
2018-08-28T04:13:18.364Z,17.25
2018-08-28T04:15:47.567Z,17.26
2018-08-28T04:18:16.982Z,17.25
2018-08-28T04:20:46.461Z,17.25
2018-08-28T04:23:15.762Z,17.25
2018-08-28T04:25:46.753Z,17.23
2018-08-28T04:28:15.989Z,17.20
2018-08-28T04:30:47.114Z,17.19
2018-08-28T04:33:16.268Z,17.20
2018-08-28T04:35:45.522Z,17.18
2018-08-28T04:38:14.717Z,17.16
2018-08-28T04:40:43.906Z,17.15
2018-08-28T04:43:14.131Z,17.12
2018-08-28T04:45:43.366Z,17.11
2018-08-28T04:48:12.524Z,17.11
2018-08-28T04:50:42.010Z,17.13
2018-08-28T04:53:11.221Z,17.13
2018-08-28T04:55:40.826Z,17.12
2018-08-28T04:58:09.972Z,17.16
2018-08-28T05:00:39.518Z,17.19
2018-08-28T05:03:08.653Z,17.19
2018-08-28T05:05:38.114Z,17.22
2018-08-28T05:11:10.288Z,17.22
2018-08-28T05:13:39.732Z,17.26
2018-08-28T05:16:08.930Z,17.28
2018-08-28T05:18:39.098Z,17.28
2018-08-28T05:21:08.279Z,17.31
2018-08-28T05:24:08.716Z,17.34
2018-08-28T05:26:38.166Z,17.36
2018-08-28T05:29:07.263Z,17.36
2018-08-28T05:31:36.489Z,17.41
2018-08-28T05:34:05.996Z,17.48
2018-08-28T05:36:35.419Z,17.54
2018-08-28T05:39:05.907Z,17.56
2018-08-28T05:41:35.043Z,17.61
2018-08-28T05:44:04.210Z,17.65
2018-08-28T05:46:33.395Z,17.70
2018-08-28T05:49:02.750Z,17.74
2018-08-28T05:51:31.882Z,17.79
2018-08-28T05:54:00.992Z,17.79
2018-08-28T05:56:30.123Z,17.80
2018-08-28T05:58:59.343Z,17.85
2018-08-28T06:01:28.519Z,17.90
2018-08-28T06:03:57.757Z,17.94
2018-08-28T06:06:26.902Z,17.95
2018-08-28T06:08:56.221Z,17.94
2018-08-28T06:11:25.418Z,17.92
2018-08-28T06:18:53.236Z,17.90
2018-08-28T06:21:22.444Z,17.93
2018-08-28T06:23:52.060Z,18.00
2018-08-28T06:26:21.216Z,18.07
2018-08-28T06:28:50.321Z,18.16
2018-08-28T06:31:19.417Z,18.24
2018-08-28T06:33:49.233Z,18.32
2018-08-28T06:36:18.459Z,18.39
2018-08-28T06:38:47.625Z,18.47
2018-08-28T06:41:16.809Z,18.51
2018-08-28T06:43:46.282Z,18.56
2018-08-28T06:46:15.464Z,18.59
2018-08-28T06:48:44.985Z,18.64
2018-08-28T06:51:14.141Z,18.67
2018-08-28T06:53:43.741Z,18.73
2018-08-28T06:56:12.885Z,18.81
2018-08-28T06:58:42.435Z,18.91
2018-08-28T07:01:11.601Z,19.02
2018-08-28T07:03:41.095Z,19.08
2018-08-28T07:06:10.351Z,19.14
2018-08-28T07:08:39.943Z,19.18
2018-08-28T07:11:09.119Z,19.28
2018-08-28T07:13:38.500Z,19.40
2018-08-28T07:16:07.886Z,19.47
2018-08-28T07:18:37.124Z,19.49
2018-08-28T07:21:06.406Z,19.46
2018-08-28T07:23:35.764Z,19.51
2018-08-28T07:26:05.196Z,19.55
2018-08-28T07:28:34.393Z,19.55
2018-08-28T07:31:03.593Z,19.62
2018-08-28T07:33:32.701Z,19.71
2018-08-28T07:36:01.858Z,19.74
2018-08-28T07:38:31.105Z,19.79
2018-08-28T07:41:01.302Z,19.83
2018-08-28T07:43:30.516Z,19.86
2018-08-28T07:45:59.690Z,19.88
2018-08-28T07:48:28.937Z,19.93
2018-08-28T07:50:58.070Z,20.02
2018-08-28T07:53:27.211Z,20.11
2018-08-28T07:55:56.397Z,20.24
2018-08-28T07:58:26.412Z,20.34
2018-08-28T08:37:48.373Z,20.79
2018-08-28T08:40:17.521Z,20.85
2018-08-28T08:42:47.082Z,20.90
2018-08-28T08:45:16.287Z,21.00
2018-08-28T08:47:45.938Z,21.11
2018-08-28T08:50:15.100Z,21.19
2018-08-28T08:52:44.868Z,21.31
2018-08-28T08:55:14.115Z,21.41
2018-08-28T08:57:43.694Z,21.48
2018-08-28T09:00:30.822Z,21.59
2018-08-28T09:03:00.061Z,21.66
2018-08-28T09:05:29.226Z,21.83
2018-08-28T09:07:58.387Z,21.92
2018-08-28T09:10:29.402Z,22.12
2018-08-28T09:12:58.554Z,22.14
2018-08-28T09:15:27.942Z,22.11
2018-08-28T09:17:57.630Z,22.06
2018-08-28T09:20:28.201Z,22.08
2018-08-28T09:22:57.688Z,22.11
2018-08-28T09:25:28.494Z,22.13
2018-08-28T09:27:57.631Z,22.17
2018-08-28T09:30:28.370Z,22.17
2018-08-28T09:32:57.764Z,22.25
2018-08-28T09:35:27.400Z,22.37
2018-08-28T10:14:48.651Z,22.58
2018-08-28T10:17:17.798Z,22.56
2018-08-28T10:19:47.305Z,22.45
2018-08-28T10:22:16.509Z,22.41
2018-08-28T10:24:46.026Z,22.43
2018-08-28T10:27:16.032Z,22.51
2018-08-28T10:29:47.417Z,22.56
2018-08-28T10:32:17.443Z,22.56
2018-08-28T10:34:48.106Z,22.47
2018-08-28T10:37:19.302Z,22.52
2018-08-28T10:39:48.327Z,22.70
2018-08-28T10:42:17.454Z,22.87
2018-08-28T10:44:46.519Z,23.09
2018-08-28T10:47:15.547Z,23.33
2018-08-28T10:49:44.663Z,23.56
2018-08-28T10:52:13.679Z,23.71
2018-08-28T10:54:42.718Z,23.69
2018-08-28T10:57:11.815Z,23.68
2018-08-28T10:59:40.987Z,23.78
2018-08-28T11:02:10.169Z,23.96
2018-08-28T11:04:39.336Z,24.12
2018-08-28T11:07:08.378Z,24.12
2018-08-28T11:09:37.451Z,24.01
2018-08-28T11:12:06.528Z,23.96
2018-08-28T11:14:35.641Z,23.82
2018-08-28T11:17:05.060Z,23.59
2018-08-28T11:19:34.295Z,23.46
2018-08-28T11:22:03.386Z,23.40
2018-08-28T11:24:32.474Z,23.26
2018-08-28T11:27:01.533Z,23.18
2018-08-28T11:29:30.615Z,23.13
2018-08-28T11:31:59.691Z,23.13
2018-08-28T11:34:28.818Z,23.16
2018-08-28T11:36:58.386Z,23.36
2018-08-28T11:39:28.381Z,23.55
2018-08-28T11:41:58.553Z,23.67
2018-08-28T11:44:28.454Z,23.80
2018-08-28T11:46:59.528Z,24.04
2018-08-28T11:49:29.472Z,24.16
2018-08-28T11:51:59.325Z,24.14
2018-08-28T11:54:29.298Z,24.15
2018-08-28T11:56:59.790Z,24.21
2018-08-28T11:59:28.820Z,24.36
2018-08-28T12:01:58.802Z,24.52
2018-08-28T12:04:28.587Z,24.68
2018-08-28T12:06:58.784Z,24.91
2018-08-28T12:09:28.666Z,25.08
2018-08-28T12:11:58.855Z,25.19
2018-08-28T12:14:28.717Z,25.12
2018-08-28T12:16:58.825Z,25.30
2018-08-28T12:19:28.725Z,25.40
2018-08-28T12:21:58.907Z,25.49
2018-08-28T12:24:28.793Z,25.63
2018-08-28T12:26:58.924Z,25.75
2018-08-28T12:29:28.832Z,25.73
2018-08-28T12:31:58.954Z,25.54
2018-08-28T12:34:28.866Z,25.47
2018-08-28T12:36:59.053Z,25.53
2018-08-28T12:39:29.256Z,25.55
2018-08-28T12:41:58.932Z,25.26
2018-08-28T12:44:28.897Z,25.15
2018-08-28T12:46:59.025Z,25.14
2018-08-28T12:49:28.904Z,25.21
2018-08-28T12:51:59.108Z,25.17
2018-08-28T12:54:29.229Z,25.23
2018-08-28T12:56:59.114Z,25.21
2018-08-28T12:59:28.997Z,25.30
2018-08-28T13:01:59.152Z,25.37
2018-08-28T13:04:29.297Z,25.50
2018-08-28T13:06:59.244Z,25.45
2018-08-28T13:09:29.277Z,25.49
2018-08-28T13:11:59.416Z,25.52
2018-08-28T13:14:29.370Z,25.66
2018-08-28T13:16:59.253Z,25.80
2018-08-28T13:19:29.285Z,25.90
2018-08-28T13:21:59.323Z,25.85
2018-08-28T13:24:29.413Z,26.02
2018-08-28T13:26:59.717Z,25.89
2018-08-28T13:29:29.444Z,25.82
2018-08-28T13:31:59.350Z,25.92
2018-08-28T13:50:14.607Z,26.53
2018-08-28T13:52:45.144Z,26.55
2018-08-28T13:55:14.307Z,26.66
2018-08-28T13:57:43.776Z,26.72
2018-08-28T14:00:14.714Z,26.78
2018-08-28T14:02:44.460Z,26.80
2018-08-28T14:05:13.729Z,26.79
2018-08-28T14:07:43.669Z,26.84
2018-08-28T14:10:13.278Z,26.92
2018-08-28T14:15:45.634Z,27.04
2018-08-28T14:18:14.760Z,27.18
2018-08-28T14:20:44.189Z,27.26
2018-08-28T14:23:13.298Z,27.25
2018-08-28T14:25:42.785Z,27.37
2018-08-28T14:28:11.972Z,27.66
2018-08-28T14:30:42.401Z,28.02
2018-08-28T14:35:55.699Z,28.80
2018-08-28T14:38:24.876Z,29.11
2018-08-28T14:40:54.009Z,29.23
2018-08-28T14:43:23.152Z,29.50
2018-08-28T14:45:52.676Z,29.59
2018-08-28T14:48:23.472Z,29.82
2018-08-28T14:50:52.715Z,29.90
2018-08-28T14:53:21.909Z,30.00
2018-08-28T14:55:51.429Z,30.20
2018-08-28T14:58:20.726Z,30.34
2018-08-28T15:00:50.325Z,30.43
2018-08-28T15:03:19.479Z,30.62
2018-08-28T15:05:49.031Z,30.80
2018-08-28T15:08:20.837Z,30.82
2018-08-28T15:10:50.494Z,30.84
2018-08-28T15:13:19.740Z,30.77
2018-08-28T15:15:49.188Z,30.47
2018-08-28T15:18:18.317Z,30.51
2018-08-28T15:20:47.945Z,30.51
2018-08-28T15:23:17.161Z,30.42
2018-08-28T15:25:46.653Z,30.31
2018-08-28T15:28:15.882Z,30.37
2018-08-28T15:30:45.565Z,30.38
2018-08-28T15:33:14.724Z,30.32
2018-08-28T15:35:44.393Z,30.13
2018-08-28T15:38:13.592Z,29.96
2018-08-28T15:40:43.028Z,29.92
2018-08-28T15:43:12.188Z,29.90
2018-08-28T15:45:41.674Z,29.73
2018-08-28T15:48:10.794Z,29.64
2018-08-28T15:50:40.036Z,29.47
2018-08-28T15:53:09.502Z,29.37
2018-08-28T15:55:38.715Z,29.22
2018-08-28T15:58:07.898Z,28.93
2018-08-28T16:00:37.065Z,28.80
2018-08-28T16:03:06.263Z,28.65
2018-08-28T16:05:35.431Z,28.59
2018-08-28T16:08:04.694Z,28.46
2018-08-28T16:10:33.837Z,28.17
2018-08-28T16:13:02.993Z,27.86
2018-08-28T16:15:32.122Z,27.57
2018-08-28T16:18:04.102Z,27.39
2018-08-28T16:20:33.272Z,27.20
2018-08-28T16:23:06.863Z,26.98
2018-08-28T16:25:37.724Z,26.84
2018-08-28T16:28:06.925Z,26.63
2018-08-28T16:30:36.152Z,26.39
2018-08-28T16:33:07.033Z,26.24
2018-08-28T16:35:36.291Z,26.20
2018-08-28T16:38:05.450Z,26.12
2018-08-28T16:40:34.661Z,26.07
2018-08-28T16:43:03.749Z,25.94
2018-08-28T16:45:32.916Z,25.87
2018-08-28T16:48:02.077Z,25.78
2018-08-28T16:50:31.249Z,25.67
2018-08-28T16:53:01.180Z,25.60
2018-08-28T16:55:30.787Z,25.53
2018-08-28T17:02:54.985Z,25.32
2018-08-28T17:05:24.432Z,25.24
2018-08-28T17:07:53.941Z,25.16
2018-08-28T17:10:23.101Z,25.12
2018-08-28T17:12:52.719Z,25.02
2018-08-28T17:15:21.971Z,24.94
2018-08-28T17:17:51.459Z,24.87
2018-08-28T17:20:21.886Z,24.78
2018-08-28T17:22:51.290Z,24.70
2018-08-28T17:25:20.843Z,24.58
2018-08-28T17:27:50.547Z,24.51
2018-08-28T17:30:19.982Z,24.44
2018-08-28T17:32:49.604Z,24.35
2018-08-28T17:35:18.812Z,24.27
2018-08-28T17:37:50.893Z,24.16
2018-08-28T17:40:21.915Z,24.05
2018-08-28T17:42:52.025Z,23.96
2018-08-28T17:45:21.358Z,23.87
2018-08-28T17:47:51.095Z,23.77
2018-08-28T17:50:20.368Z,23.68
2018-08-28T17:52:49.578Z,23.59
2018-08-28T17:55:18.819Z,23.52
2018-08-28T17:57:48.375Z,23.44
2018-08-28T18:00:17.622Z,23.33
2018-08-28T18:02:47.174Z,23.24
2018-08-28T18:05:16.452Z,23.09
2018-08-28T18:07:46.103Z,22.99
2018-08-28T18:10:15.577Z,22.92
2018-08-28T18:12:48.419Z,22.84
2018-08-28T18:15:17.912Z,22.76
2018-08-28T18:17:47.476Z,22.67
2018-08-28T18:20:16.847Z,22.57
2018-08-28T18:22:46.416Z,22.48
2018-08-28T18:25:15.629Z,22.40
2018-08-28T18:27:45.332Z,22.31
2018-08-28T18:30:14.748Z,22.26
2018-08-28T18:32:44.402Z,22.17
2018-08-28T18:35:14.569Z,22.10
2018-08-28T18:37:44.291Z,22.04
2018-08-28T18:40:13.737Z,21.97
2018-08-28T18:42:43.392Z,21.89
2018-08-28T18:45:12.899Z,21.81
2018-08-28T18:47:42.562Z,21.76
2018-08-28T18:50:12.015Z,21.70
2018-08-28T18:52:44.540Z,21.64
2018-08-28T18:55:14.057Z,21.56
2018-08-28T18:57:43.796Z,21.46
2018-08-28T19:00:15.098Z,21.44
2018-08-28T19:02:44.900Z,21.32
2018-08-28T19:05:14.201Z,21.24
2018-08-28T19:07:44.697Z,21.16
2018-08-28T19:10:16.298Z,21.08
2018-08-28T19:12:46.448Z,21.01
2018-08-28T19:15:15.827Z,20.94
2018-08-28T19:17:45.764Z,20.88
2018-08-28T19:20:15.873Z,20.82
2018-08-28T19:22:47.761Z,20.78
2018-08-28T19:25:18.359Z,20.74
2018-08-28T19:27:48.429Z,20.68
2018-08-28T19:30:18.824Z,20.64
2018-08-28T19:32:49.369Z,20.60
2018-08-28T19:35:18.636Z,20.57
2018-08-28T19:37:52.327Z,20.51
2018-08-28T19:40:21.977Z,20.47
2018-08-28T19:42:52.394Z,20.41
2018-08-28T19:45:23.448Z,20.35
2018-08-28T19:47:53.418Z,20.29
2018-08-28T19:50:23.608Z,20.28
2018-08-28T19:52:53.361Z,20.22
2018-08-28T19:55:23.750Z,20.20
2018-08-28T19:57:53.585Z,20.20
2018-08-28T20:00:22.985Z,20.16
2018-08-28T20:02:52.805Z,20.13
2018-08-28T20:05:24.187Z,20.11
2018-08-28T20:07:56.088Z,20.04
2018-08-28T20:10:25.376Z,19.97
2018-08-28T20:12:55.137Z,19.92
2018-08-28T20:15:24.383Z,19.87
2018-08-28T20:17:54.092Z,19.77
2018-08-28T20:20:25.905Z,19.66
2018-08-28T20:22:55.476Z,19.60
2018-08-28T20:25:26.907Z,19.56
2018-08-28T20:27:59.057Z,19.50
2018-08-28T20:30:28.260Z,19.46
2018-08-28T20:32:58.368Z,19.43
2018-08-28T20:35:30.306Z,19.43
2018-08-28T20:37:59.976Z,19.42
2018-08-28T20:40:29.160Z,19.39
2018-08-28T20:42:58.654Z,19.36
2018-08-28T20:45:27.860Z,19.33
2018-08-28T20:47:58.251Z,19.31
2018-08-28T20:50:27.403Z,19.28
2018-08-28T20:52:57.371Z,19.24
2018-08-28T20:55:26.639Z,19.19
2018-08-28T20:57:56.315Z,19.13
2018-08-28T21:00:25.514Z,19.06
2018-08-28T21:02:54.797Z,19.02
2018-08-28T21:05:28.875Z,18.97
2018-08-28T21:08:00.102Z,18.93
2018-08-28T21:10:29.787Z,18.91
2018-08-28T21:12:59.224Z,18.86
2018-08-28T21:15:28.382Z,18.82
2018-08-28T21:17:57.565Z,18.77
2018-08-28T21:20:26.708Z,18.70
2018-08-28T21:22:55.837Z,18.65
2018-08-28T21:25:25.141Z,18.56
2018-08-28T21:27:54.715Z,18.50
2018-08-28T21:30:23.909Z,18.45
2018-08-28T21:32:53.461Z,18.43
2018-08-28T21:35:22.644Z,18.38
2018-08-28T21:37:54.184Z,18.36
2018-08-28T21:40:23.363Z,18.32
2018-08-28T21:42:52.858Z,18.29
2018-08-28T21:45:22.023Z,18.25
2018-08-28T21:47:52.250Z,18.22
2018-08-28T21:50:22.146Z,18.20
2018-08-28T21:52:51.737Z,18.19
2018-08-28T21:55:21.028Z,18.19
2018-08-28T21:57:50.547Z,18.17
2018-08-28T22:00:19.692Z,18.15
2018-08-28T22:02:49.262Z,18.13
2018-08-28T22:05:22.168Z,18.12
2018-08-28T22:07:55.931Z,18.11
2018-08-28T22:10:25.176Z,18.10
2018-08-28T22:12:54.764Z,18.06
2018-08-28T22:15:24.072Z,18.06
2018-08-28T22:17:55.712Z,18.05
2018-08-28T22:20:24.927Z,18.06
2018-08-28T22:22:54.476Z,18.05
2018-08-28T22:25:23.732Z,18.04
2018-08-28T22:27:53.360Z,18.00
2018-08-28T22:30:22.506Z,17.98
2018-08-28T22:32:52.175Z,17.95
2018-08-28T22:35:21.318Z,17.92
2018-08-28T22:37:50.869Z,17.90
2018-08-28T22:40:20.005Z,17.90
2018-08-28T22:42:49.585Z,17.89
2018-08-28T22:45:18.744Z,17.87
2018-08-28T22:47:48.226Z,17.83
2018-08-28T22:50:17.489Z,17.77
2018-08-28T22:52:47.614Z,17.73
2018-08-28T22:55:16.745Z,17.71
2018-08-28T22:57:46.087Z,17.69
2018-08-28T23:00:15.341Z,17.66
2018-08-28T23:02:45.051Z,17.66
2018-08-28T23:05:14.330Z,17.65
2018-08-28T23:07:43.773Z,17.61
2018-08-28T23:10:13.021Z,17.58
2018-08-28T23:12:42.349Z,17.57
2018-08-28T23:15:11.648Z,17.52
2018-08-28T23:17:40.828Z,17.44
2018-08-28T23:20:10.038Z,17.42
2018-08-28T23:22:39.197Z,17.41
2018-08-28T23:25:08.464Z,17.41
2018-08-28T23:27:37.660Z,17.37
2018-08-28T23:30:06.965Z,17.36
2018-08-28T23:33:07.332Z,17.35
2018-08-28T23:35:37.596Z,17.35
2018-08-28T23:38:06.806Z,17.36
2018-08-28T23:40:36.706Z,17.33
2018-08-28T23:43:06.588Z,17.31
2018-08-28T23:45:35.771Z,17.31
2018-08-28T23:48:04.914Z,17.28
2018-08-28T23:50:34.365Z,17.26
